[ ตารางข้อมูล ] [ Min-Max ] [ วันนี้4 ] [ วันนี้2 ] [ เทียบ3วัน A ] [ เทียบ4วัน B ]   

วันนี้2   [ ◀ ช่วงเก่ากว่า ] [ ช่วงที่ 189 ] [ ช่วงใหม่กว่า ▶ ] [ ล่าสุด ]    [ 3 ชั่วโมง ] [ 6 ชั่วโมง ] [ 12 ชั่วโมง ] [ 24 ชั่วโมง ]   วันนี้2

อุณภูมิตู้ Knockdown4529  ราย 3 ชั่วโมง  ที่วัดได้ ในช่วงวันเวลา 10/04/2026 (12:09) ถึง 10/04/2026 (15:09) 
ความชื้นในตู้ Knockdown4529  ราย 3 ชั่วโมง  ที่วัดได้ ในช่วงวันเวลา 10/04/2026 (12:09) ถึง 10/04/2026 (15:09) 

 
DS18B20SHTC3 
IDDate d/m/Y & Timedata1
สูง
data2
ต่ำ
data3
นอก
temp
pcb
hum
pcb
Time
 10579  10/04/2026 15:08:30  32.6  31.8  32.9  32.3  66.2  15:08 
 10578  10/04/2026 15:03:48  32.6  31.8  32.6  32.1  66.2  15:03 
 10577  10/04/2026 14:59:06  32.6  31.8  33.1  32.3  66.1  14:59 
 10576  10/04/2026 14:54:25  32.6  31.8  33.0  32.3  65.8  14:54 
 10575  10/04/2026 14:49:43  32.7  31.7  33.0  32.3  65.9  14:49 
 10574  10/04/2026 14:45:02  32.7  31.7  33.0  32.2  65.8  14:45 
 10573  10/04/2026 14:40:20  32.8  31.7  32.8  32.1  65.7  14:40 
 10572  10/04/2026 14:35:38  32.8  31.6  33.1  32.1  65.7  14:35 
 10571  10/04/2026 14:30:55  32.8  31.6  33.1  32.2  65.8  14:30 
 10570  10/04/2026 14:26:13  32.8  31.6  33.0  32.3  65.6  14:26 
 10569  10/04/2026 14:21:31  32.8  31.6  33.2  32.5  65.7  14:21 
 10568  10/04/2026 14:16:47  32.8  31.6  32.9  32.3  65.6  14:16 
 10567  10/04/2026 14:12:05  32.8  31.6  33.2  32.4  65.5  14:12 
 10566  10/04/2026 14:07:23  32.8  31.6  33.4  32.2  65.6  14:07 
 10565  10/04/2026 14:02:40  32.8  31.5  33.5  32.3  65.4  14:02 
 10564  10/04/2026 13:57:59  32.7  31.5  33.6  32.3  65.4  13:57 
 10563  10/04/2026 13:53:17  32.7  31.4  33.5  32.4  65.3  13:53 
 10562  10/04/2026 13:48:34  32.7  31.4  33.6  32.3  65.2  13:48 
 10561  10/04/2026 13:43:52  32.7  31.4  33.8  32.3  65.2  13:43 
 10560  10/04/2026 13:39:11  32.7  31.4  33.7  32.1  65.2  13:39 
 10559  10/04/2026 13:34:28  32.6  31.3  33.5  32.1  65.1  13:34 
 10558  10/04/2026 13:29:45  32.6  31.2  33.5  32.1  65.1  13:29 
 10557  10/04/2026 13:25:03  32.6  31.2  33.5  32.0  65.1  13:25 
 10556  10/04/2026 13:20:22  32.6  31.2  33.7  32.1  65.2  13:20 

Data every 5 minute.


ใช้เวลาประมวลผล 0.00214 วินาที